41.8°F
Current conditions from King Hill
Updated every 5 minutes
 
  Saturday October 25, 2014

Station Historical Data
Daily Summary for February 19, 2012 Units:  English    Metric   Both
« Previous Day
Next Day »
Daily Weekly Monthly Yearly Custom
  High: Low: Average:
Temperature: 32.3 °F 20.2 °F 25.3 °F
Dew Point: 19.2 °F 13.2 °F 16.1 °F
Humidity: 77% 51% 68%
Wind Speed: 7.0mph 1.0mph 2.5mph
Wind Gust: 13.0mph - -
Wind- - West
Pressure: 30.08 in 30.01 in -
Precipitation: 0.00 in    
Historical Graphs
 
 
Tabular Data for February 19, 2012
Time Temperature Dew Point Pressure Wind Wind Speed Wind Gust Humidity Daily Rainfall
00:05 24.3 °F 17.5 °F 30.01 in NNW 1.0 mph 5.0 mph 75% 0.00 in
00:10 24.2 °F 17.4 °F 30.01 in NNW 1.0 mph 6.0 mph 75% 0.00 in
00:15 24.0 °F 17.2 °F 30.02 in Calm   6.0 mph 75% 0.00 in
00:20 23.9 °F 17.1 °F 30.02 in NNW 1.0 mph 5.0 mph 75% 0.00 in
00:25 23.9 °F 17.4 °F 30.02 in NW 3.0 mph 7.0 mph 76% 0.00 in
00:30 24.0 °F 17.2 °F 30.02 in NW 3.0 mph 7.0 mph 75% 0.00 in
00:35 24.2 °F 17.4 °F 30.03 in NW 1.0 mph 7.0 mph 75% 0.00 in
00:40 24.2 °F 17.4 °F 30.03 in NW 5.0 mph 9.0 mph 75% 0.00 in
00:45 24.4 °F 17.3 °F 30.03 in NW 4.0 mph 10.0 mph 74% 0.00 in
00:50 24.4 °F 17.3 °F 30.03 in NW 4.0 mph 10.0 mph 74% 0.00 in
00:55 24.4 °F 17.3 °F 30.03 in NNW 3.0 mph 13.0 mph 74% 0.00 in
01:00 24.3 °F 17.2 °F 30.03 in NNW 3.0 mph 13.0 mph 74% 0.00 in
01:05 24.4 °F 17.3 °F 30.03 in NW 4.0 mph 11.0 mph 74% 0.00 in
01:10 24.5 °F 17.4 °F 30.03 in NNW 4.0 mph 11.0 mph 74% 0.00 in
01:15 24.6 °F 17.5 °F 30.03 in NW 5.0 mph 10.0 mph 74% 0.00 in
01:20 24.7 °F 17.3 °F 30.03 in NW 1.0 mph 10.0 mph 73% 0.00 in
01:25 24.6 °F 17.2 °F 30.04 in NW 4.0 mph 8.0 mph 73% 0.00 in
01:30 24.6 °F 17.2 °F 30.04 in NNW 3.0 mph 8.0 mph 73% 0.00 in
01:35 24.7 °F 17.3 °F 30.04 in NW 3.0 mph 9.0 mph 73% 0.00 in
01:40 24.7 °F 17.3 °F 30.04 in NW 2.0 mph 9.0 mph 73% 0.00 in
01:45 24.7 °F 17.3 °F 30.04 in NW 4.0 mph 8.0 mph 73% 0.00 in
01:50 24.7 °F 17.0 °F 30.04 in NNW 3.0 mph 10.0 mph 72% 0.00 in
01:55 24.7 °F 17.0 °F 30.04 in NW 3.0 mph 10.0 mph 72% 0.00 in
02:00 24.7 °F 17.0 °F 30.04 in NNW 3.0 mph 8.0 mph 72% 0.00 in
02:05 24.7 °F 17.0 °F 30.04 in NNW 3.0 mph 10.0 mph 72% 0.00 in
02:10 24.7 °F 17.0 °F 30.04 in NW 5.0 mph 10.0 mph 72% 0.00 in
02:15 24.7 °F 17.0 °F 30.04 in NNW 2.0 mph 8.0 mph 72% 0.00 in
02:20 24.7 °F 17.0 °F 30.04 in NNW 2.0 mph 9.0 mph 72% 0.00 in
02:30 24.6 °F 16.9 °F 30.03 in NW 4.0 mph 8.0 mph 72% 0.00 in
02:35 24.6 °F 16.9 °F 30.03 in Calm   9.0 mph 72% 0.00 in
02:40 24.5 °F 16.8 °F 30.03 in NNE 3.0 mph 9.0 mph 72% 0.00 in
02:45 24.5 °F 16.8 °F 30.03 in North 2.0 mph 9.0 mph 72% 0.00 in
02:50 24.5 °F 16.8 °F 30.03 in NNW 1.0 mph 9.0 mph 72% 0.00 in
02:55 24.4 °F 16.7 °F 30.03 in NW 2.0 mph 9.0 mph 72% 0.00 in
03:00 24.4 °F 17.0 °F 30.03 in NNE 2.0 mph 8.0 mph 73% 0.00 in
03:05 24.3 °F 16.9 °F 30.03 in NNW 2.0 mph 9.0 mph 73% 0.00 in
03:10 24.2 °F 17.1 °F 30.03 in NNW 1.0 mph 9.0 mph 74% 0.00 in
03:15 24.2 °F 16.8 °F 30.03 in Calm   7.0 mph 73% 0.00 in
03:20 24.1 °F 17.0 °F 30.03 in Calm   6.0 mph 74% 0.00 in
03:25 24.1 °F 17.0 °F 30.03 in NNW 1.0 mph 4.0 mph 74% 0.00 in
03:30 24.0 °F 16.9 °F 30.02 in North 2.0 mph 6.0 mph 74% 0.00 in
03:35 23.9 °F 16.8 °F 30.02 in NNE 2.0 mph 8.0 mph 74% 0.00 in
03:40 23.8 °F 16.7 °F 30.02 in NNW 1.0 mph 8.0 mph 74% 0.00 in
03:45 23.7 °F 16.6 °F 30.02 in North 2.0 mph 7.0 mph 74% 0.00 in
03:50 23.6 °F 16.5 °F 30.03 in Calm   7.0 mph 74% 0.00 in
03:55 23.5 °F 16.7 °F 30.03 in NNW 2.0 mph 6.0 mph 75% 0.00 in
04:00 23.4 °F 16.6 °F 30.03 in North 2.0 mph 6.0 mph 75% 0.00 in
04:05 23.4 °F 16.6 °F 30.03 in Calm   4.0 mph 75% 0.00 in
04:10 23.4 °F 16.6 °F 30.03 in NNW 1.0 mph 4.0 mph 75% 0.00 in
04:15 23.3 °F 16.6 °F 30.03 in North 2.0 mph 6.0 mph 75% 0.00 in
04:20 23.3 °F 16.6 °F 30.04 in Calm   6.0 mph 75% 0.00 in
04:25 23.2 °F 16.8 °F 30.04 in NE 2.0 mph 7.0 mph 76% 0.00 in
04:30 23.2 °F 16.8 °F 30.04 in Calm   7.0 mph 76% 0.00 in
04:35 23.2 °F 16.8 °F 30.04 in NNE 1.0 mph 5.0 mph 76% 0.00 in
04:40 23.1 °F 16.7 °F 30.04 in Calm   5.0 mph 76% 0.00 in
04:45 23.1 °F 16.7 °F 30.04 in North 1.0 mph 5.0 mph 76% 0.00 in
04:50 23.0 °F 16.6 °F 30.04 in Calm   5.0 mph 76% 0.00 in
04:55 23.0 °F 16.6 °F 30.04 in Calm   5.0 mph 76% 0.00 in
05:00 23.0 °F 16.6 °F 30.04 in North 1.0 mph 6.0 mph 76% 0.00 in
05:05 22.9 °F 16.5 °F 30.04 in NNE 2.0 mph 9.0 mph 76% 0.00 in
05:10 22.8 °F 16.4 °F 30.04 in NNE 2.0 mph 9.0 mph 76% 0.00 in
05:15 22.7 °F 16.3 °F 30.04 in NNE 1.0 mph 7.0 mph 76% 0.00 in
05:20 22.7 °F 16.6 °F 30.04 in North 1.0 mph 7.0 mph 77% 0.00 in
05:25 22.7 °F 16.6 °F 30.04 in North 2.0 mph 5.0 mph 77% 0.00 in
05:30 22.6 °F 16.5 °F 30.05 in North 1.0 mph 9.0 mph 77% 0.00 in
05:40 22.5 °F 16.1 °F 30.05 in North 3.0 mph 8.0 mph 76% 0.00 in
05:45 22.4 °F 16.0 °F 30.05 in North 3.0 mph 7.0 mph 76% 0.00 in
05:55 22.3 °F 15.9 °F 30.05 in Calm   8.0 mph 76% 0.00 in
06:00 22.2 °F 15.8 °F 30.05 in NE 1.0 mph 5.0 mph 76% 0.00 in
06:05 22.1 °F 15.7 °F 30.05 in NNW 1.0 mph 6.0 mph 76% 0.00 in
06:10 22.1 °F 15.7 °F 30.05 in NE 2.0 mph 7.0 mph 76% 0.00 in
06:15 22.0 °F 15.6 °F 30.05 in Calm   7.0 mph 76% 0.00 in
06:20 21.9 °F 15.5 °F 30.06 in Calm   5.0 mph 76% 0.00 in
06:25 21.8 °F 15.4 °F 30.06 in Calm   3.0 mph 76% 0.00 in
06:30 21.8 °F 15.4 °F 30.06 in Calm   2.0 mph 76% 0.00 in
06:35 21.8 °F 15.4 °F 30.06 in Calm   2.0 mph 76% 0.00 in
06:40 21.8 °F 15.1 °F 30.06 in Calm   4.0 mph 75% 0.00 in
06:45 21.7 °F 15.0 °F 30.07 in NNE 1.0 mph 4.0 mph 75% 0.00 in
06:50 21.6 °F 14.9 °F 30.06 in Calm   4.0 mph 75% 0.00 in
07:00 21.6 °F 14.9 °F 30.07 in Calm   4.0 mph 75% 0.00 in
07:05 21.6 °F 14.9 °F 30.07 in Calm   4.0 mph 75% 0.00 in
07:20 21.8 °F 15.1 °F 30.07 in Calm   2.0 mph 75% 0.00 in
07:25 21.8 °F 14.8 °F 30.07 in ENE 1.0 mph 5.0 mph 74% 0.00 in
07:30 21.8 °F 14.8 °F 30.07 in Calm   5.0 mph 74% 0.00 in
07:35 21.9 °F 14.9 °F 30.07 in NE 1.0 mph 4.0 mph 74% 0.00 in
07:40 21.9 °F 14.9 °F 30.07 in Calm   5.0 mph 74% 0.00 in
07:45 22.0 °F 15.0 °F 30.07 in Calm   5.0 mph 74% 0.00 in
07:50 22.1 °F 15.1 °F 30.07 in Calm   1.0 mph 74% 0.00 in
07:55 22.2 °F 15.2 °F 30.07 in Calm   1.0 mph 74% 0.00 in
08:00 22.4 °F 15.1 °F 30.07 in NNE 2.0 mph 4.0 mph 73% 0.00 in
08:10 22.7 °F 15.3 °F 30.07 in NNE 1.0 mph 4.0 mph 73% 0.00 in
08:20 23.1 °F 15.4 °F 30.07 in NNE 1.0 mph 3.0 mph 72% 0.00 in
08:25 23.3 °F 15.6 °F 30.08 in Calm   3.0 mph 72% 0.00 in
08:30 23.5 °F 15.8 °F 30.08 in NNE 2.0 mph 4.0 mph 72% 0.00 in
08:35 23.5 °F 15.5 °F 30.08 in Calm   4.0 mph 71% 0.00 in
08:40 23.5 °F 15.2 °F 30.08 in NNE 2.0 mph 5.0 mph 70% 0.00 in
08:50 23.7 °F 15.4 °F 30.08 in NW 4.0 mph 10.0 mph 70% 0.00 in
08:55 24.3 °F 15.6 °F 30.08 in NNW 2.0 mph 10.0 mph 69% 0.00 in
09:00 24.7 °F 16.0 °F 30.08 in NW 1.0 mph 8.0 mph 69% 0.00 in
09:05 24.7 °F 15.6 °F 30.08 in NW 1.0 mph 9.0 mph 68% 0.00 in
09:10 24.3 °F 15.3 °F 30.08 in North 2.0 mph 10.0 mph 68% 0.00 in
09:15 24.1 °F 15.1 °F 30.08 in NW 4.0 mph 10.0 mph 68% 0.00 in
09:20 23.8 °F 15.1 °F 30.08 in NW 1.0 mph 10.0 mph 69% 0.00 in
09:25 24.1 °F 15.1 °F 30.08 in NW 5.0 mph 10.0 mph 68% 0.00 in
09:35 26.0 °F 16.5 °F 30.08 in North 2.0 mph 7.0 mph 67% 0.00 in
09:40 26.8 °F 16.6 °F 30.08 in NW 1.0 mph 7.0 mph 65% 0.00 in
09:45 27.5 °F 16.6 °F 30.08 in North 3.0 mph 10.0 mph 63% 0.00 in
09:50 27.4 °F 16.5 °F 30.08 in North 2.0 mph 10.0 mph 63% 0.00 in
09:55 27.4 °F 16.1 °F 30.08 in NNW 2.0 mph 6.0 mph 62% 0.00 in
10:00 26.9 °F 15.6 °F 30.08 in NW 3.0 mph 8.0 mph 62% 0.00 in
10:05 26.7 °F 15.8 °F 30.08 in NNW 1.0 mph 8.0 mph 63% 0.00 in
10:10 26.7 °F 16.2 °F 30.08 in NW 3.0 mph 6.0 mph 64% 0.00 in
10:15 27.0 °F 16.4 °F 30.08 in NNE 1.0 mph 6.0 mph 64% 0.00 in
10:20 27.3 °F 16.4 °F 30.08 in North 2.0 mph 5.0 mph 63% 0.00 in
10:25 27.4 °F 16.5 °F 30.08 in North 1.0 mph 5.0 mph 63% 0.00 in
10:35 27.7 °F 16.7 °F 30.08 in NNE 1.0 mph 6.0 mph 63% 0.00 in
10:40 27.8 °F 16.8 °F 30.08 in Calm   6.0 mph 63% 0.00 in
10:45 27.9 °F 17.3 °F 30.08 in Calm   6.0 mph 64% 0.00 in
10:50 28.5 °F 17.5 °F 30.08 in NNW 2.0 mph 4.0 mph 63% 0.00 in
10:55 28.7 °F 17.7 °F 30.08 in Calm   5.0 mph 63% 0.00 in
11:00 29.0 °F 18.0 °F 30.08 in North 2.0 mph 6.0 mph 63% 0.00 in
11:05 29.0 °F 17.2 °F 30.08 in North 2.0 mph 6.0 mph 61% 0.00 in
11:10 28.7 °F 16.9 °F 30.08 in NW 1.0 mph 6.0 mph 61% 0.00 in
11:15 27.9 °F 16.2 °F 30.08 in Calm   6.0 mph 61% 0.00 in
11:20 27.9 °F 16.6 °F 30.08 in NW 3.0 mph 6.0 mph 62% 0.00 in
11:25 28.0 °F 17.0 °F 30.08 in NNW 1.0 mph 5.0 mph 63% 0.00 in
11:30 28.8 °F 17.0 °F 30.08 in West 2.0 mph 5.0 mph 61% 0.00 in
11:40 29.6 °F 17.4 °F 30.07 in NW 3.0 mph 8.0 mph 60% 0.00 in
11:50 29.6 °F 17.4 °F 30.07 in NW 4.0 mph 6.0 mph 60% 0.00 in
11:55 29.6 °F 17.4 °F 30.07 in WNW 6.0 mph 9.0 mph 60% 0.00 in
12:00 29.4 °F 17.2 °F 30.07 in West 5.0 mph 9.0 mph 60% 0.00 in
12:05 29.8 °F 18.0 °F 30.07 in Calm   8.0 mph 61% 0.00 in
12:10 30.6 °F 18.7 °F 30.07 in NW 3.0 mph 6.0 mph 61% 0.00 in
12:15 30.6 °F 17.6 °F 30.06 in NW 4.0 mph 8.0 mph 58% 0.00 in
12:20 30.7 °F 17.7 °F 30.06 in Calm   8.0 mph 58% 0.00 in
12:25 31.1 °F 17.6 °F 30.06 in North 1.0 mph 4.0 mph 57% 0.00 in
12:30 30.6 °F 18.0 °F 30.06 in North 3.0 mph 8.0 mph 59% 0.00 in
12:35 30.0 °F 17.4 °F 30.05 in Calm   8.0 mph 59% 0.00 in
12:40 29.7 °F 18.3 °F 30.06 in NW 3.0 mph 6.0 mph 62% 0.00 in
12:45 29.7 °F 17.9 °F 30.05 in NNE 3.0 mph 6.0 mph 61% 0.00 in
12:55 29.7 °F 18.3 °F 30.05 in NNW 2.0 mph 6.0 mph 62% 0.00 in
13:00 29.6 °F 18.6 °F 30.05 in NNW 5.0 mph 10.0 mph 63% 0.00 in
13:05 29.9 °F 19.2 °F 30.05 in NNW 3.0 mph 10.0 mph 64% 0.00 in
13:10 29.5 °F 18.5 °F 30.05 in NW 5.0 mph 10.0 mph 63% 0.00 in
13:15 29.1 °F 18.8 °F 30.05 in NW 3.0 mph 9.0 mph 65% 0.00 in
13:20 29.2 °F 18.9 °F 30.05 in NW 3.0 mph 9.0 mph 65% 0.00 in
13:25 29.8 °F 19.1 °F 30.05 in NNW 4.0 mph 9.0 mph 64% 0.00 in
13:30 30.2 °F 19.1 °F 30.05 in NW 3.0 mph 8.0 mph 63% 0.00 in
13:35 30.5 °F 19.0 °F 30.05 in NNW 3.0 mph 8.0 mph 62% 0.00 in
13:45 30.5 °F 17.9 °F 30.05 in NNW 3.0 mph 9.0 mph 59% 0.00 in
13:50 30.8 °F 18.2 °F 30.04 in NW 1.0 mph 9.0 mph 59% 0.00 in
13:55 31.3 °F 18.6 °F 30.04 in WNW 4.0 mph 7.0 mph 59% 0.00 in
14:00 32.0 °F 18.5 °F 30.04 in NW 4.0 mph 8.0 mph 57% 0.00 in
14:10 31.1 °F 17.6 °F 30.04 in NNW 5.0 mph 9.0 mph 57% 0.00 in
14:15 31.1 °F 18.0 °F 30.04 in NW 3.0 mph 9.0 mph 58% 0.00 in
14:20 31.3 °F 17.0 °F 30.04 in WNW 7.0 mph 10.0 mph 55% 0.00 in
14:30 32.1 °F 16.9 °F 30.04 in NW 7.0 mph 12.0 mph 53% 0.00 in
14:40 32.1 °F 16.9 °F 30.04 in NNW 4.0 mph 8.0 mph 53% 0.00 in
14:45 32.1 °F 17.3 °F 30.04 in North 4.0 mph 8.0 mph 54% 0.00 in
14:50 32.0 °F 17.2 °F 30.04 in NW 6.0 mph 13.0 mph 54% 0.00 in
14:55 31.5 °F 17.2 °F 30.04 in NNW 4.0 mph 13.0 mph 55% 0.00 in
15:00 31.8 °F 17.0 °F 30.03 in NW 4.0 mph 8.0 mph 54% 0.00 in
15:05 32.1 °F 16.9 °F 30.03 in NNW 3.0 mph 8.0 mph 53% 0.00 in
15:10 32.0 °F 17.7 °F 30.03 in NW 3.0 mph 8.0 mph 55% 0.00 in
15:15 32.3 °F 17.5 °F 30.03 in NW 2.0 mph 7.0 mph 54% 0.00 in
15:20 32.2 °F 17.0 °F 30.03 in WNW 4.0 mph 8.0 mph 53% 0.00 in
15:25 32.3 °F 16.6 °F 30.02 in NNW 5.0 mph 11.0 mph 52% 0.00 in
15:30 31.7 °F 15.6 °F 30.02 in WNW 5.0 mph 11.0 mph 51% 0.00 in
15:35 31.4 °F 16.7 °F 30.02 in NW 4.0 mph 10.0 mph 54% 0.00 in
15:45 31.6 °F 16.9 °F 30.02 in NNW 1.0 mph 12.0 mph 54% 0.00 in
15:55 31.0 °F 15.0 °F 30.02 in NW 5.0 mph 13.0 mph 51% 0.00 in
16:00 31.1 °F 16.4 °F 30.02 in North 1.0 mph 9.0 mph 54% 0.00 in
16:05 31.4 °F 15.8 °F 30.01 in NW 3.0 mph 7.0 mph 52% 0.00 in
16:10 31.3 °F 16.1 °F 30.01 in NW 2.0 mph 7.0 mph 53% 0.00 in
16:15 31.3 °F 15.7 °F 30.01 in NNW 2.0 mph 6.0 mph 52% 0.00 in
16:20 31.1 °F 15.5 °F 30.01 in NW 4.0 mph 7.0 mph 52% 0.00 in
16:25 31.0 °F 15.9 °F 30.01 in NNW 3.0 mph 7.0 mph 53% 0.00 in
16:35 31.1 °F 15.5 °F 30.02 in North 1.0 mph 5.0 mph 52% 0.00 in
16:40 30.9 °F 15.3 °F 30.01 in NNW 1.0 mph 5.0 mph 52% 0.00 in
16:45 30.6 °F 15.5 °F 30.02 in Calm   5.0 mph 53% 0.00 in
16:50 29.9 °F 14.8 °F 30.02 in NW 3.0 mph 8.0 mph 53% 0.00 in
16:55 29.4 °F 15.2 °F 30.02 in Calm   8.0 mph 55% 0.00 in
17:00 29.0 °F 15.3 °F 30.02 in Calm   6.0 mph 56% 0.00 in
17:05 28.8 °F 15.5 °F 30.02 in NE 1.0 mph 6.0 mph 57% 0.00 in
17:10 28.3 °F 15.4 °F 30.02 in North 1.0 mph 5.0 mph 58% 0.00 in
17:15 27.9 °F 15.0 °F 30.02 in Calm   4.0 mph 58% 0.00 in
17:20 27.4 °F 15.3 °F 30.02 in Calm   2.0 mph 60% 0.00 in
17:30 26.6 °F 15.0 °F 30.02 in Calm   2.0 mph 61% 0.00 in
17:40 26.1 °F 15.2 °F 30.02 in Calm   4.0 mph 63% 0.00 in
17:45 25.8 °F 15.3 °F 30.02 in Calm   4.0 mph 64% 0.00 in
17:50 25.6 °F 15.5 °F 30.02 in Calm   2.0 mph 65% 0.00 in
17:55 25.2 °F 15.4 °F 30.03 in Calm   2.0 mph 66% 0.00 in
18:00 25.1 °F 15.3 °F 30.03 in Calm   3.0 mph 66% 0.00 in
18:05 25.0 °F 15.2 °F 30.03 in Calm   3.0 mph 66% 0.00 in
18:10 24.9 °F 15.2 °F 30.03 in Calm   2.0 mph 66% 0.00 in
18:15 24.7 °F 15.0 °F 30.03 in Calm     66% 0.00 in
18:20 24.5 °F 15.1 °F 30.03 in Calm     67% 0.00 in
18:25 24.3 °F 14.9 °F 30.04 in Calm     67% 0.00 in
18:30 24.2 °F 14.8 °F 30.04 in Calm     67% 0.00 in
18:35 24.1 °F 14.7 °F 30.04 in Calm     67% 0.00 in
18:40 24.1 °F 14.7 °F 30.04 in Calm     67% 0.00 in
18:45 24.0 °F 15.0 °F 30.04 in Calm     68% 0.00 in
18:50 23.9 °F 14.9 °F 30.04 in Calm     68% 0.00 in
18:55 23.8 °F 15.1 °F 30.04 in Calm     69% 0.00 in
19:00 23.7 °F 15.0 °F 30.04 in Calm   1.0 mph 69% 0.00 in
19:05 23.6 °F 14.9 °F 30.04 in Calm   1.0 mph 69% 0.00 in
19:10 23.6 °F 15.3 °F 30.04 in Calm   2.0 mph 70% 0.00 in
19:15 23.4 °F 15.1 °F 30.04 in Calm   2.0 mph 70% 0.00 in
19:20 23.4 °F 15.4 °F 30.05 in Calm   1.0 mph 71% 0.00 in
19:25 23.3 °F 15.3 °F 30.05 in Calm     71% 0.00 in
19:30 23.1 °F 15.4 °F 30.05 in Calm     72% 0.00 in
19:45 22.4 °F 14.7 °F 30.05 in Calm     72% 0.00 in
19:50 22.0 °F 14.7 °F 30.05 in Calm     73% 0.00 in
19:55 21.7 °F 14.7 °F 30.05 in Calm     74% 0.00 in
20:00 21.5 °F 14.8 °F 30.05 in Calm   2.0 mph 75% 0.00 in
20:05 21.5 °F 14.8 °F 30.05 in Calm   2.0 mph 75% 0.00 in
20:10 21.3 °F 14.6 °F 30.05 in Calm   1.0 mph 75% 0.00 in
20:15 21.4 °F 14.7 °F 30.05 in Calm   1.0 mph 75% 0.00 in
20:20 21.6 °F 14.9 °F 30.05 in Calm     75% 0.00 in
20:25 21.8 °F 15.1 °F 30.05 in Calm   1.0 mph 75% 0.00 in
20:30 21.9 °F 14.9 °F 30.05 in Calm   2.0 mph 74% 0.00 in
20:35 22.0 °F 15.0 °F 30.05 in NNE 1.0 mph 3.0 mph 74% 0.00 in
20:40 22.1 °F 15.1 °F 30.05 in Calm   3.0 mph 74% 0.00 in
20:45 22.2 °F 14.9 °F 30.06 in Calm   3.0 mph 73% 0.00 in
20:50 22.1 °F 14.8 °F 30.05 in Calm   3.0 mph 73% 0.00 in
20:55 22.1 °F 14.8 °F 30.05 in NNE 1.0 mph 4.0 mph 73% 0.00 in
21:00 21.9 °F 14.6 °F 30.05 in Calm   4.0 mph 73% 0.00 in
21:05 21.7 °F 14.7 °F 30.05 in Calm   2.0 mph 74% 0.00 in
21:10 21.4 °F 14.4 °F 30.05 in NNE 1.0 mph 3.0 mph 74% 0.00 in
21:15 21.3 °F 14.3 °F 30.05 in NNE 1.0 mph 4.0 mph 74% 0.00 in
21:20 21.3 °F 14.3 °F 30.06 in Calm   4.0 mph 74% 0.00 in
21:30 21.3 °F 14.3 °F 30.06 in North 1.0 mph 6.0 mph 74% 0.00 in
21:35 21.3 °F 14.3 °F 30.06 in North 2.0 mph 4.0 mph 74% 0.00 in
21:40 21.3 °F 14.3 °F 30.06 in NW 2.0 mph 6.0 mph 74% 0.00 in
22:00 21.3 °F 14.0 °F 30.06 in NW 4.0 mph 6.0 mph 73% 0.00 in
22:05 21.5 °F 13.9 °F 30.06 in NNW 2.0 mph 6.0 mph 72% 0.00 in
22:15 21.6 °F 14.0 °F 30.06 in NW 2.0 mph 8.0 mph 72% 0.00 in
22:20 21.5 °F 13.9 °F 30.06 in Calm   5.0 mph 72% 0.00 in
22:25 21.3 °F 13.7 °F 30.06 in Calm   5.0 mph 72% 0.00 in
22:35 21.3 °F 13.7 °F 30.06 in NW 2.0 mph 9.0 mph 72% 0.00 in
22:40 21.2 °F 13.6 °F 30.06 in Calm   7.0 mph 72% 0.00 in
22:45 20.9 °F 13.3 °F 30.06 in NNW 1.0 mph 5.0 mph 72% 0.00 in
22:50 20.8 °F 13.5 °F 30.06 in NW 2.0 mph 5.0 mph 73% 0.00 in
22:55 20.7 °F 13.4 °F 30.06 in NW 2.0 mph 6.0 mph 73% 0.00 in
23:00 20.8 °F 13.5 °F 30.06 in NW 3.0 mph 6.0 mph 73% 0.00 in
23:05 20.9 °F 13.6 °F 30.06 in NW 2.0 mph 5.0 mph 73% 0.00 in
23:10 20.8 °F 13.5 °F 30.06 in NW 1.0 mph 5.0 mph 73% 0.00 in
23:15 20.9 °F 13.6 °F 30.06 in NW 2.0 mph 6.0 mph 73% 0.00 in
23:20 20.8 °F 13.5 °F 30.06 in NW 3.0 mph 6.0 mph 73% 0.00 in
23:25 20.7 °F 13.4 °F 30.06 in NW 2.0 mph 5.0 mph 73% 0.00 in
23:30 20.6 °F 13.3 °F 30.06 in NW 1.0 mph 5.0 mph 73% 0.00 in
23:35 20.5 °F 13.2 °F 30.06 in Calm   4.0 mph 73% 0.00 in
23:50 20.2 °F 13.2 °F 30.07 in Calm   5.0 mph 74% 0.00 in
23:55 20.2 °F 13.2 °F 30.07 in NW 1.0 mph 4.0 mph 74% 0.00 in
Westford Weather
Compliments of Weather Underground

 
 
Current Radar Loop:

Copyright © WestfordWeather.net 2007-2014. All rights reserved.